Time;durP1;ratioP1;P1;durP2;ratioP2;P2;SDS_P1;SDS_P2;PMS_P1;PMS_P2;Temp;Humidity;BMP_temperature;BMP_pressure;BME280_temperature;BME280_humidity;BME280_pressure;Samples;Min_cycle;Max_cycle;Signal;HPM_P1;HPM_P2
2021/09/21 00:00:29;;;;;;;8.87;2.20;;;21.40;99.90;;;;;;6231954;23;20176;-93
2021/09/21 00:03:01;;;;;;;3.37;1.50;;;21.40;99.90;;;;;;6224700;23;20191;-92
2021/09/21 00:05:37;;;;;;;5.50;1.53;;;21.30;99.90;;;;;;6228911;23;20224;-92
2021/09/21 00:08:13;;;;;;;3.80;1.70;;;21.30;99.90;;;;;;6230260;23;20172;-91
2021/09/21 00:10:46;;;;;;;3.67;1.57;;;21.20;99.90;;;;;;6212382;23;20211;-93
2021/09/21 00:13:17;;;;;;;4.03;1.60;;;21.00;99.90;;;;;;6208317;23;20184;-92
2021/09/21 00:15:49;;;;;;;3.83;1.80;;;20.70;99.90;;;;;;6236830;23;20183;-93
2021/09/21 00:18:21;;;;;;;4.90;1.40;;;20.40;99.90;;;;;;6231655;23;20631;-93
2021/09/21 00:20:57;;;;;;;3.27;1.50;;;20.50;99.90;;;;;;6230085;23;20238;-92
2021/09/21 00:23:29;;;;;;;3.27;1.50;;;20.50;99.90;;;;;;6222993;23;20900;-91
2021/09/21 00:26:00;;;;;;;3.20;1.50;;;20.50;99.90;;;;;;6224386;23;20226;-92
2021/09/21 00:28:32;;;;;;;4.47;2.00;;;20.50;99.90;;;;;;6199884;23;20227;-94
2021/09/21 00:31:08;;;;;;;4.13;1.73;;;20.50;99.90;;;;;;6240928;23;20168;-95
2021/09/21 00:33:49;;;;;;;2.50;1.33;;;20.40;99.90;;;;;;6242990;23;20167;-94
2021/09/21 00:36:26;;;;;;;3.17;1.60;;;20.40;99.90;;;;;;6184054;22;20192;-93
2021/09/21 00:38:58;;;;;;;2.40;1.37;;;20.40;99.90;;;;;;6242952;22;20207;-93
2021/09/21 00:41:30;;;;;;;2.83;1.43;;;20.50;99.90;;;;;;6243195;22;20183;-92
2021/09/21 00:44:01;;;;;;;2.33;1.43;;;20.30;99.90;;;;;;6243070;22;20173;-95
2021/09/21 00:46:33;;;;;;;5.73;1.40;;;20.30;99.90;;;;;;6230747;23;20177;-94
2021/09/21 00:49:05;;;;;;;3.90;1.93;;;20.30;99.90;;;;;;6228567;23;20200;-94
2021/09/21 00:51:42;;;;;;;3.10;1.57;;;20.30;99.90;;;;;;6230622;23;20180;-94
2021/09/21 00:54:14;;;;;;;4.07;1.37;;;20.30;99.90;;;;;;6226484;23;20183;-93
2021/09/21 00:56:46;;;;;;;3.60;1.80;;;20.30;99.90;;;;;;6225725;23;20177;-93
2021/09/21 00:59:19;;;;;;;4.00;1.47;;;20.30;99.90;;;;;;6234947;23;20195;-91
2021/09/21 01:01:52;;;;;;;2.33;1.30;;;20.20;99.90;;;;;;6229074;23;20169;-92
2021/09/21 01:04:24;;;;;;;5.33;1.30;;;20.00;99.90;;;;;;6237053;23;20264;-91
2021/09/21 01:06:59;;;;;;;3.07;1.50;;;20.00;99.90;;;;;;6235754;23;20176;-91
2021/09/21 01:09:32;;;;;;;3.13;1.30;;;20.00;99.90;;;;;;6233451;23;20196;-92
2021/09/21 01:12:05;;;;;;;2.30;1.50;;;19.90;99.90;;;;;;6235336;23;20224;-91
2021/09/21 01:14:39;;;;;;;2.50;1.80;;;19.80;99.90;;;;;;6232496;23;20231;-92
2021/09/21 01:17:11;;;;;;;5.07;2.10;;;19.60;99.90;;;;;;6234456;23;20187;-92
2021/09/21 01:19:43;;;;;;;2.93;1.50;;;19.60;99.90;;;;;;6233875;23;20221;-92
2021/09/21 01:22:18;;;;;;;5.63;2.47;;;19.50;99.90;;;;;;6229898;23;20176;-93
2021/09/21 01:27:45;;;;;;;2.00;1.47;;;19.20;99.90;;;;;;6237140;23;20177;-92
2021/09/21 01:30:19;;;;;;;4.33;1.50;;;19.10;99.90;;;;;;6239269;23;20212;-92
2021/09/21 01:32:52;;;;;;;3.40;1.80;;;19.00;99.90;;;;;;6220474;22;20215;-91
2021/09/21 01:35:24;;;;;;;4.17;1.70;;;18.80;99.90;;;;;;6237137;23;20180;-92
2021/09/21 01:38:02;;;;;;;3.30;1.73;;;18.70;99.90;;;;;;6227143;23;20168;-92
2021/09/21 01:40:34;;;;;;;4.00;1.73;;;18.50;99.90;;;;;;6232716;23;20187;-93
2021/09/21 01:43:08;;;;;;;4.90;1.87;;;18.30;99.90;;;;;;6221452;23;20183;-93
2021/09/21 01:45:39;;;;;;;5.10;1.70;;;18.20;99.90;;;;;;6209885;23;20177;-91
2021/09/21 01:48:12;;;;;;;3.67;1.83;;;18.10;99.90;;;;;;6237628;23;20237;-91
2021/09/21 01:50:49;;;;;;;3.10;1.93;;;18.10;99.90;;;;;;6242347;23;20199;-92
2021/09/21 01:53:33;;;;;;;4.40;2.40;;;18.00;99.90;;;;;;6242289;23;20175;-93
2021/09/21 01:58:56;;;;;;;2.90;1.77;;;17.80;99.90;;;;;;6222612;23;20163;-91
2021/09/21 02:04:07;;;;;;;4.20;2.40;;;17.70;99.90;;;;;;6220390;23;20200;-93
2021/09/21 02:06:40;;;;;;;3.60;2.00;;;17.50;99.90;;;;;;6223455;23;20242;-92
2021/09/21 02:09:16;;;;;;;4.17;2.00;;;17.40;99.90;;;;;;6240262;23;20149;-92
2021/09/21 02:11:49;;;;;;;2.73;1.97;;;17.30;99.90;;;;;;6213366;23;20207;-91
2021/09/21 02:19:49;;;;;;;3.80;2.07;;;16.90;99.90;;;;;;6218131;23;20276;-90
2021/09/21 02:22:22;;;;;;;3.83;1.77;;;16.80;99.90;;;;;;6236341;23;20187;-92
2021/09/21 02:24:56;;;;;;;3.00;1.90;;;16.70;99.90;;;;;;6237789;23;20180;-93
2021/09/21 02:27:29;;;;;;;5.33;2.13;;;16.60;99.90;;;;;;6213687;23;20180;-93
2021/09/21 02:32:49;;;;;;;3.40;1.80;;;16.30;99.90;;;;;;6231946;23;20180;-93
2021/09/21 02:35:21;;;;;;;4.17;1.93;;;16.20;99.90;;;;;;6234547;23;20172;-91
2021/09/21 02:37:54;;;;;;;5.03;2.03;;;16.10;99.90;;;;;;6210686;23;20164;-92
2021/09/21 02:40:29;;;;;;;5.20;2.30;;;16.00;99.90;;;;;;6186342;23;20168;-92
2021/09/21 02:43:01;;;;;;;3.50;2.43;;;15.90;99.90;;;;;;6235737;23;20227;-92
2021/09/21 02:45:33;;;;;;;2.87;1.90;;;15.80;99.90;;;;;;6234604;23;20176;-92
2021/09/21 02:48:05;;;;;;;2.90;2.10;;;15.70;99.90;;;;;;6240497;23;20177;-92
2021/09/21 02:50:38;;;;;;;3.97;2.13;;;15.60;99.90;;;;;;6238234;23;20193;-95
2021/09/21 02:53:11;;;;;;;3.00;1.97;;;15.60;99.90;;;;;;6212717;23;20165;-92
2021/09/21 02:55:47;;;;;;;2.87;2.03;;;15.50;99.90;;;;;;6235349;23;20165;-92
2021/09/21 02:58:18;;;;;;;6.13;2.27;;;15.50;99.90;;;;;;6234063;23;20180;-92
2021/09/21 03:00:53;;;;;;;3.70;2.37;;;15.40;99.90;;;;;;6232781;23;20284;-92
2021/09/21 03:03:29;;;;;;;4.27;2.20;;;15.40;99.90;;;;;;6230839;23;20175;-92
2021/09/21 03:06:04;;;;;;;3.03;1.93;;;15.30;99.90;;;;;;6235348;23;20164;-93
2021/09/21 03:08:37;;;;;;;4.47;2.00;;;15.20;99.90;;;;;;6208169;23;20175;-94
2021/09/21 03:11:17;;;;;;;3.87;1.93;;;15.10;99.90;;;;;;6212810;23;20208;-94
2021/09/21 03:19:29;;;;;;;4.83;2.43;;;15.10;99.90;;;;;;6220895;23;20189;-95
2021/09/21 03:22:01;;;;;;;4.77;2.30;;;15.00;99.90;;;;;;6225478;23;20546;-93
2021/09/21 03:24:33;;;;;;;5.07;2.90;;;14.90;99.90;;;;;;6196525;23;20183;-96
2021/09/21 03:27:07;;;;;;;4.90;2.40;;;14.90;99.90;;;;;;6227312;23;20184;-93
2021/09/21 03:29:39;;;;;;;6.10;2.50;;;14.80;99.90;;;;;;6235141;23;20180;-93
2021/09/21 03:32:10;;;;;;;4.23;2.33;;;14.80;99.90;;;;;;6232313;23;20192;-95
2021/09/21 03:34:42;;;;;;;4.57;2.67;;;14.70;99.90;;;;;;6233732;23;20169;-93
2021/09/21 03:37:21;;;;;;;4.13;2.50;;;14.60;99.90;;;;;;6209347;23;20173;-92
2021/09/21 03:40:02;;;;;;;4.67;2.60;;;14.60;99.90;;;;;;6241267;23;20169;-93
2021/09/21 03:42:36;;;;;;;3.23;2.30;;;14.50;99.90;;;;;;6234474;23;20176;-93
2021/09/21 03:45:09;;;;;;;3.67;2.57;;;14.50;99.90;;;;;;6234537;23;20569;-94
2021/09/21 03:47:41;;;;;;;4.57;2.87;;;14.40;99.90;;;;;;6228804;23;20180;-93
2021/09/21 03:50:13;;;;;;;3.33;2.50;;;14.50;99.90;;;;;;6207945;23;20169;-93
2021/09/21 03:52:45;;;;;;;4.33;2.50;;;14.40;99.90;;;;;;6237423;23;20225;-94
2021/09/21 03:55:17;;;;;;;3.23;2.50;;;14.40;99.90;;;;;;6240170;23;20188;-94
2021/09/21 03:57:52;;;;;;;3.87;2.67;;;14.40;99.90;;;;;;6186510;23;20177;-94
2021/09/21 04:00:23;;;;;;;4.30;2.50;;;14.30;99.90;;;;;;6234687;23;20487;-92
2021/09/21 04:02:58;;;;;;;3.77;2.50;;;14.30;99.90;;;;;;6235332;23;20180;-93
2021/09/21 04:08:07;;;;;;;5.93;2.80;;;14.20;99.90;;;;;;6225048;23;20202;-95
2021/09/21 04:13:23;;;;;;;4.00;2.90;;;14.10;99.90;;;;;;6236409;23;20199;-95
2021/09/21 04:15:56;;;;;;;6.30;2.93;;;14.10;99.90;;;;;;6238476;23;20186;-96
2021/09/21 04:18:30;;;;;;;4.43;2.70;;;14.00;99.90;;;;;;6238404;23;20282;-96
2021/09/21 04:21:07;;;;;;;6.43;2.90;;;13.90;99.90;;;;;;6241151;23;20200;-96
2021/09/21 04:23:40;;;;;;;5.77;2.80;;;14.00;99.90;;;;;;6238277;23;20180;-96
2021/09/21 04:28:52;;;;;;;3.80;2.77;;;14.00;99.90;;;;;;6225106;23;20515;-96
2021/09/21 04:31:27;;;;;;;4.80;2.67;;;13.90;99.90;;;;;;6235417;23;20287;-96
2021/09/21 04:33:59;;;;;;;4.20;2.77;;;13.90;99.90;;;;;;6238152;23;20160;-96
2021/09/21 04:36:31;;;;;;;7.97;2.90;;;13.80;99.90;;;;;;6242811;23;20203;-96
2021/09/21 04:39:03;;;;;;;5.97;2.57;;;13.80;99.90;;;;;;6242841;23;20157;-96
2021/09/21 04:55:00;;;;;;;5.83;2.87;;;13.60;99.90;;;;;;6225914;22;20216;-96
2021/09/21 04:57:33;;;;;;;4.37;2.80;;;13.50;99.90;;;;;;6224216;23;20187;-96
2021/09/21 05:00:05;;;;;;;4.63;2.50;;;13.50;99.90;;;;;;6232872;23;20184;-96
2021/09/21 05:02:38;;;;;;;8.40;2.70;;;13.40;99.90;;;;;;6235645;23;20171;-96
2021/09/21 05:05:11;;;;;;;3.07;2.37;;;13.50;99.90;;;;;;6218769;23;20172;-96
2021/09/21 05:07:47;;;;;;;4.97;2.67;;;13.40;99.90;;;;;;6242893;23;20195;-96
2021/09/21 05:10:24;;;;;;;3.37;2.53;;;13.40;99.90;;;;;;6212874;23;20160;-96
2021/09/21 05:12:56;;;;;;;2.67;2.20;;;13.30;99.90;;;;;;6235381;23;20188;-96
2021/09/21 05:15:30;;;;;;;3.57;2.77;;;13.30;99.90;;;;;;6233992;23;20176;-96
2021/09/21 05:18:03;;;;;;;4.30;2.37;;;13.30;99.90;;;;;;6211979;23;20176;-96
2021/09/21 05:20:34;;;;;;;2.73;2.33;;;13.20;99.90;;;;;;6234047;23;20226;-96
2021/09/21 05:23:07;;;;;;;4.10;2.37;;;13.20;99.90;;;;;;6230318;23;20176;-96
2021/09/21 05:25:46;;;;;;;5.43;2.60;;;13.20;99.90;;;;;;6206719;23;20176;-96
2021/09/21 05:28:18;;;;;;;4.77;2.80;;;13.10;99.90;;;;;;6187875;23;20513;-96
2021/09/21 05:30:52;;;;;;;4.57;2.40;;;13.10;99.90;;;;;;6213054;23;20232;-96
2021/09/21 05:36:00;;;;;;;4.57;2.50;;;13.00;99.90;;;;;;6211493;23;20211;-96
2021/09/21 05:38:33;;;;;;;3.50;2.40;;;13.00;99.90;;;;;;6237488;23;20195;-96
2021/09/21 05:41:09;;;;;;;5.40;2.70;;;13.00;99.90;;;;;;6240526;23;20230;-96
2021/09/21 05:43:41;;;;;;;4.10;2.30;;;12.90;99.90;;;;;;6236038;23;20175;-96
2021/09/21 05:46:13;;;;;;;3.53;2.43;;;13.00;99.90;;;;;;6237310;23;20193;-96
2021/09/21 05:48:46;;;;;;;5.10;2.83;;;12.90;99.90;;;;;;6236758;23;20176;-96
2021/09/21 05:51:19;;;;;;;4.57;2.80;;;12.90;99.90;;;;;;6235393;23;20207;-96
2021/09/21 05:53:52;;;;;;;3.73;2.77;;;12.80;99.90;;;;;;6236107;23;20230;-93
2021/09/21 05:56:27;;;;;;;4.20;2.80;;;12.70;99.90;;;;;;6212757;23;20176;-96
2021/09/21 05:58:59;;;;;;;5.37;2.93;;;12.70;99.90;;;;;;6235984;23;20176;-96
2021/09/21 06:01:32;;;;;;;4.57;3.20;;;12.60;99.90;;;;;;6239400;23;20246;-96
2021/09/21 06:04:05;;;;;;;4.97;3.07;;;12.60;99.90;;;;;;6242644;23;20168;-96
2021/09/21 06:06:39;;;;;;;5.10;3.07;;;12.60;99.90;;;;;;6217290;23;20175;-95
2021/09/21 06:17:00;;;;;;;4.63;2.57;;;12.50;99.90;;;;;;6242750;23;20216;-96
2021/09/21 06:19:35;;;;;;;4.77;2.97;;;12.50;99.90;;;;;;6231609;23;20176;-96
2021/09/21 06:22:08;;;;;;;3.53;2.90;;;12.50;99.90;;;;;;6235001;23;20153;-95
2021/09/21 06:24:40;;;;;;;4.50;3.07;;;12.40;99.90;;;;;;6242319;23;20165;-96
2021/09/21 06:27:15;;;;;;;3.73;2.83;;;12.40;99.90;;;;;;6241684;23;20195;-96
2021/09/21 06:29:47;;;;;;;5.67;3.20;;;12.40;99.90;;;;;;6238636;23;20203;-96
2021/09/21 06:32:21;;;;;;;5.93;3.20;;;12.30;99.90;;;;;;6229916;23;20199;-96
2021/09/21 06:34:52;;;;;;;5.00;3.20;;;12.30;99.90;;;;;;6231047;23;20196;-96
2021/09/21 06:37:25;;;;;;;4.10;2.63;;;12.30;99.90;;;;;;6230146;23;20176;-96
2021/09/21 06:39:57;;;;;;;3.37;2.70;;;12.30;99.90;;;;;;6230731;23;20180;-96
2021/09/21 06:42:33;;;;;;;5.07;3.13;;;12.30;99.90;;;;;;6229269;23;20177;-96
2021/09/21 06:45:07;;;;;;;5.30;2.80;;;12.30;99.90;;;;;;6232222;23;20603;-96
2021/09/21 06:47:43;;;;;;;5.80;3.03;;;12.20;99.90;;;;;;6231738;23;20176;-96
2021/09/21 06:50:16;;;;;;;4.70;3.13;;;12.20;99.90;;;;;;6183369;23;20203;-96
2021/09/21 06:52:49;;;;;;;4.97;3.07;;;12.10;99.90;;;;;;6230145;23;20192;-96
2021/09/21 06:55:21;;;;;;;6.27;3.37;;;12.10;99.90;;;;;;6231969;23;20209;-96
2021/09/21 06:57:56;;;;;;;4.23;2.87;;;12.20;99.90;;;;;;6227615;23;20180;-96
2021/09/21 07:00:27;;;;;;;3.20;2.80;;;12.10;99.90;;;;;;6198665;23;20168;-96
2021/09/21 07:03:01;;;;;;;3.27;2.80;;;12.10;99.90;;;;;;6223612;23;20180;-96
2021/09/21 07:05:33;;;;;;;4.27;2.70;;;12.00;99.90;;;;;;6200079;23;20243;-96
2021/09/21 07:08:08;;;;;;;3.97;2.97;;;12.00;99.90;;;;;;6226151;23;20168;-96
2021/09/21 07:10:41;;;;;;;6.07;3.13;;;12.00;99.90;;;;;;6224381;23;20168;-96
2021/09/21 07:13:12;;;;;;;3.73;2.90;;;12.00;99.90;;;;;;6224010;23;20196;-96
2021/09/21 07:15:44;;;;;;;6.90;3.23;;;11.90;99.90;;;;;;6216058;23;20185;-96
2021/09/21 07:18:18;;;;;;;3.73;2.97;;;11.90;99.90;;;;;;6212851;23;20196;-96
2021/09/21 07:20:51;;;;;;;4.63;2.90;;;11.80;99.90;;;;;;6211624;23;20176;-96
2021/09/21 07:23:26;;;;;;;4.33;2.80;;;11.80;99.90;;;;;;6204152;23;20204;-96
2021/09/21 07:25:59;;;;;;;5.13;3.40;;;11.80;99.90;;;;;;6197411;23;20600;-96
2021/09/21 07:28:31;;;;;;;3.77;3.00;;;11.70;99.90;;;;;;6195805;23;20179;-96
2021/09/21 07:31:03;;;;;;;4.07;3.27;;;11.70;99.90;;;;;;6191593;23;20188;-96
2021/09/21 07:33:36;;;;;;;3.27;2.90;;;11.80;99.90;;;;;;6192993;23;20206;-96
2021/09/21 07:36:15;;;;;;;4.00;2.93;;;11.70;99.90;;;;;;6192714;23;20179;-96
2021/09/21 07:38:48;;;;;;;6.00;3.43;;;11.70;99.90;;;;;;6193478;23;20179;-96
2021/09/21 07:41:24;;;;;;;5.90;3.10;;;11.70;99.90;;;;;;6196612;23;20169;-96
2021/09/21 07:43:57;;;;;;;4.00;2.90;;;11.60;99.90;;;;;;6196605;23;20192;-96
2021/09/21 07:46:29;;;;;;;5.60;3.70;;;11.60;99.90;;;;;;6194998;23;20192;-96
2021/09/21 07:49:09;;;;;;;7.23;3.53;;;11.60;99.90;;;;;;6194709;23;20177;-96
2021/09/21 07:51:44;;;;;;;4.13;3.73;;;11.50;99.90;;;;;;6194389;23;20173;-96
2021/09/21 07:54:16;;;;;;;5.03;3.53;;;11.50;99.90;;;;;;6195304;23;20208;-96
2021/09/21 07:56:48;;;;;;;5.80;3.53;;;11.40;99.90;;;;;;6194754;23;20177;-96
2021/09/21 07:59:23;;;;;;;5.03;4.33;;;11.40;99.90;;;;;;6195047;23;20173;-96
2021/09/21 08:01:55;;;;;;;5.27;3.90;;;11.30;99.90;;;;;;6192777;23;20169;-96
2021/09/21 08:04:29;;;;;;;7.27;3.87;;;11.30;99.90;;;;;;6195657;23;20203;-96
2021/09/21 08:07:01;;;;;;;8.27;3.97;;;11.20;99.90;;;;;;6195868;23;20517;-96
2021/09/21 08:09:34;;;;;;;5.77;3.90;;;11.20;99.90;;;;;;6195433;23;20174;-96
2021/09/21 08:12:07;;;;;;;4.30;3.53;;;11.20;99.90;;;;;;6191702;23;20192;-96
2021/09/21 08:14:38;;;;;;;4.80;3.50;;;11.20;99.90;;;;;;6192647;23;20655;-96
2021/09/21 08:17:10;;;;;;;5.20;3.77;;;11.20;99.90;;;;;;6223376;23;20187;-96
2021/09/21 08:19:51;;;;;;;6.70;3.83;;;11.20;99.90;;;;;;6222470;23;20251;-96
2021/09/21 08:22:26;;;;;;;4.37;3.90;;;11.20;99.90;;;;;;6194681;23;20179;-96
2021/09/21 08:25:01;;;;;;;4.57;3.70;;;11.20;99.90;;;;;;6223863;23;20572;-96
2021/09/21 08:27:33;;;;;;;6.13;3.63;;;11.10;99.90;;;;;;6222232;23;20191;-96
2021/09/21 08:30:25;;;;;;;6.47;3.83;;;11.10;99.90;;;;;;6220845;23;20561;-96
2021/09/21 08:32:57;;;;;;;4.57;3.87;;;11.00;99.90;;;;;;6220271;23;20218;-96
2021/09/21 08:35:33;;;;;;;7.03;3.73;;;11.00;99.90;;;;;;6220718;23;20176;-96
2021/09/21 08:38:06;;;;;;;9.23;3.50;;;11.00;99.90;;;;;;6221980;23;20172;-95
2021/09/21 08:40:37;;;;;;;6.47;3.73;;;10.90;99.90;;;;;;6222993;23;20176;-96
2021/09/21 08:43:09;;;;;;;5.23;3.23;;;10.90;99.90;;;;;;6221642;23;20228;-96
2021/09/21 08:45:43;;;;;;;5.50;3.67;;;10.90;99.90;;;;;;6201290;23;20180;-96
2021/09/21 08:48:15;;;;;;;5.40;3.30;;;10.90;99.90;;;;;;6225792;23;20168;-96
2021/09/21 08:50:50;;;;;;;4.90;3.60;;;10.90;99.90;;;;;;6226708;23;20173;-96
2021/09/21 08:53:22;;;;;;;4.43;3.27;;;10.90;99.90;;;;;;6224210;23;20195;-96
2021/09/21 08:55:58;;;;;;;5.23;3.80;;;10.90;99.90;;;;;;6193689;23;20183;-96
2021/09/21 08:58:31;;;;;;;4.83;3.57;;;10.90;99.90;;;;;;6223432;23;20187;-96
2021/09/21 09:01:12;;;;;;;6.00;3.83;;;10.90;99.90;;;;;;6223208;23;20184;-96
2021/09/21 09:03:55;;;;;;;7.57;3.53;;;10.80;99.90;;;;;;6225262;23;20180;-96
2021/09/21 09:06:30;;;;;;;4.30;3.37;;;10.80;99.90;;;;;;6224212;23;20192;-96
2021/09/21 09:09:03;;;;;;;5.93;3.37;;;10.80;99.90;;;;;;6224417;23;20183;-96
2021/09/21 09:11:35;;;;;;;3.90;3.20;;;10.70;99.90;;;;;;6223575;23;20196;-96
2021/09/21 09:14:08;;;;;;;6.57;3.33;;;10.70;99.90;;;;;;6226928;23;20204;-96
2021/09/21 09:16:55;;;;;;;7.67;3.43;;;10.70;99.90;;;;;;6223135;23;20294;-96
2021/09/21 09:19:33;;;;;;;6.03;3.30;;;10.70;99.90;;;;;;6220297;23;20187;-96
2021/09/21 09:22:13;;;;;;;3.80;3.10;;;10.60;99.90;;;;;;6193752;23;20176;-96
2021/09/21 09:24:51;;;;;;;5.07;3.10;;;10.60;99.90;;;;;;6219050;23;20183;-96
2021/09/21 09:27:36;;;;;;;4.90;3.10;;;10.70;99.90;;;;;;6220610;23;20532;-96
2021/09/21 09:30:11;;;;;;;4.67;3.33;;;10.70;99.90;;;;;;6225166;23;20183;-96
2021/09/21 09:32:48;;;;;;;4.73;3.37;;;10.70;99.90;;;;;;6241009;23;20179;-95
2021/09/21 09:35:27;;;;;;;5.03;3.73;;;10.70;99.90;;;;;;6216954;23;20191;-96
2021/09/21 09:38:03;;;;;;;6.07;3.40;;;10.70;99.90;;;;;;6231777;23;20207;-96
2021/09/21 09:40:42;;;;;;;6.50;3.80;;;10.70;99.90;;;;;;6220828;23;20634;-96
2021/09/21 09:43:15;;;;;;;6.33;3.80;;;10.60;99.90;;;;;;6224368;23;20273;-96
2021/09/21 09:45:51;;;;;;;7.47;3.90;;;10.60;99.90;;;;;;6229073;23;20199;-96
2021/09/21 09:48:24;;;;;;;6.23;3.63;;;10.60;99.90;;;;;;6225882;23;20181;-96
2021/09/21 09:50:58;;;;;;;4.47;3.70;;;10.60;99.90;;;;;;6194763;23;20219;-96
2021/09/21 09:53:33;;;;;;;6.33;3.93;;;10.60;99.90;;;;;;6231140;23;20192;-96
2021/09/21 09:56:05;;;;;;;4.17;3.60;;;10.60;99.90;;;;;;6206646;23;20176;-96
2021/09/21 09:58:37;;;;;;;5.27;3.70;;;10.60;99.90;;;;;;6232400;23;20183;-96
2021/09/21 10:01:09;;;;;;;6.23;3.73;;;10.60;99.90;;;;;;6208993;23;20184;-96
2021/09/21 10:03:43;;;;;;;4.20;3.67;;;10.60;99.90;;;;;;6231091;23;20199;-96
2021/09/21 10:06:15;;;;;;;7.23;3.80;;;10.60;99.90;;;;;;6205303;23;20219;-96
2021/09/21 10:08:52;;;;;;;7.50;3.67;;;10.60;99.90;;;;;;6205823;23;20503;-96
2021/09/21 10:11:24;;;;;;;4.50;3.50;;;10.50;99.90;;;;;;6232955;23;20157;-96
2021/09/21 10:13:56;;;;;;;7.57;4.37;;;10.50;99.90;;;;;;6233117;23;20200;-96
2021/09/21 10:16:29;;;;;;;4.83;4.17;;;10.50;99.90;;;;;;6208486;23;20267;-96
2021/09/21 10:19:04;;;;;;;5.73;4.00;;;10.40;99.90;;;;;;6203502;23;20177;-96
2021/09/21 10:21:39;;;;;;;6.07;4.60;;;10.40;99.90;;;;;;6201839;23;20176;-96
2021/09/21 10:24:13;;;;;;;7.33;4.33;;;10.40;99.90;;;;;;6201608;23;20279;-96
2021/09/21 10:26:49;;;;;;;7.13;4.30;;;10.30;99.90;;;;;;6201101;23;20192;-93
2021/09/21 10:29:29;;;;;;;4.43;4.00;;;10.30;99.90;;;;;;6201959;23;20184;-96
2021/09/21 10:32:12;;;;;;;4.93;3.97;;;10.20;99.90;;;;;;6200938;23;20260;-96
2021/09/21 10:34:46;;;;;;;4.30;3.80;;;10.20;99.90;;;;;;6202477;23;20208;-96
2021/09/21 10:37:23;;;;;;;4.47;4.07;;;10.20;99.90;;;;;;6199799;23;20172;-96
2021/09/21 10:40:08;;;;;;;5.87;4.13;;;10.10;99.90;;;;;;6190796;23;20177;-96
2021/09/21 10:42:53;;;;;;;5.40;4.03;;;10.10;99.90;;;;;;6191277;23;20214;-96
2021/09/21 10:45:27;;;;;;;6.70;4.03;;;10.10;99.90;;;;;;6193634;23;20177;-96
2021/09/21 10:48:09;;;;;;;5.37;3.90;;;10.10;99.90;;;;;;6189143;23;20204;-96
2021/09/21 10:53:26;;;;;;;5.30;4.03;;;10.10;99.90;;;;;;6207074;23;20251;-96
2021/09/21 10:56:06;;;;;;;4.93;4.07;;;10.10;99.90;;;;;;6196204;23;20205;-96
2021/09/21 10:58:41;;;;;;;4.73;4.20;;;10.10;99.90;;;;;;6194547;23;20165;-96
2021/09/21 11:01:12;;;;;;;5.57;4.13;;;10.10;99.90;;;;;;6193768;23;20275;-96
2021/09/21 11:03:44;;;;;;;5.33;3.77;;;9.90;99.90;;;;;;6196056;23;20297;-96
2021/09/21 11:06:18;;;;;;;7.00;3.83;;;10.00;99.90;;;;;;6197897;23;20208;-96
2021/09/21 11:08:50;;;;;;;5.43;4.43;;;10.10;99.90;;;;;;6207776;23;20179;-96
2021/09/21 11:11:25;;;;;;;4.33;3.93;;;10.00;99.90;;;;;;6213035;23;20183;-96
2021/09/21 11:14:05;;;;;;;4.40;3.60;;;10.00;99.90;;;;;;6213111;23;20169;-96
2021/09/21 11:16:38;;;;;;;4.63;3.93;;;10.00;99.90;;;;;;6213044;23;20185;-96
2021/09/21 11:19:14;;;;;;;4.93;3.87;;;10.00;99.90;;;;;;6213859;23;20203;-96
2021/09/21 11:21:45;;;;;;;5.83;4.17;;;10.00;99.90;;;;;;6199094;23;20169;-96
2021/09/21 11:24:17;;;;;;;5.77;3.73;;;10.00;99.90;;;;;;6195020;23;20169;-96
2021/09/21 11:27:01;;;;;;;4.90;4.00;;;10.00;99.90;;;;;;6197153;23;20173;-96
2021/09/21 11:29:34;;;;;;;4.43;3.60;;;10.00;99.90;;;;;;6198439;23;20169;-96
2021/09/21 11:32:17;;;;;;;4.33;3.13;;;9.90;99.90;;;;;;6206866;23;20177;-96
2021/09/21 11:34:58;;;;;;;3.83;3.47;;;9.90;99.90;;;;;;6213727;23;20180;-96
2021/09/21 11:37:31;;;;;;;5.50;3.30;;;9.90;99.90;;;;;;6213011;23;20161;-96
2021/09/21 11:40:04;;;;;;;5.50;3.30;;;9.80;99.90;;;;;;6213678;23;20172;-96
2021/09/21 11:42:47;;;;;;;4.77;3.37;;;9.90;99.90;;;;;;6212550;23;20224;-96
2021/09/21 11:45:19;;;;;;;3.57;3.17;;;9.90;99.90;;;;;;6213341;23;20172;-96
2021/09/21 11:47:51;;;;;;;6.30;3.53;;;9.90;99.90;;;;;;6214029;23;20221;-96
2021/09/21 11:50:25;;;;;;;8.60;4.30;;;9.80;99.90;;;;;;6213923;23;20189;-96
2021/09/21 11:55:54;;;;;;;7.73;3.90;;;9.90;99.90;;;;;;6225620;23;20244;-96
2021/09/21 11:58:33;;;;;;;5.97;4.13;;;9.80;99.90;;;;;;6198158;23;20187;-96
2021/09/21 12:01:07;;;;;;;7.33;4.20;;;9.80;99.90;;;;;;6223937;23;20210;-96
2021/09/21 12:03:39;;;;;;;5.67;3.63;;;9.90;99.90;;;;;;6228235;23;20180;-96
2021/09/21 12:06:12;;;;;;;4.20;3.57;;;9.80;99.90;;;;;;6205021;23;20255;-96
2021/09/21 12:08:45;;;;;;;5.60;3.90;;;9.80;99.90;;;;;;6206334;23;20173;-96
2021/09/21 12:11:19;;;;;;;4.17;3.70;;;9.80;99.90;;;;;;6207549;23;20185;-96
2021/09/21 12:13:55;;;;;;;4.13;3.73;;;9.70;99.90;;;;;;6208649;23;20203;-96
2021/09/21 12:16:30;;;;;;;5.67;4.10;;;9.70;99.90;;;;;;6206624;23;20192;-96
2021/09/21 12:19:05;;;;;;;5.90;3.97;;;9.70;99.90;;;;;;6204926;23;20168;-96
2021/09/21 12:21:38;;;;;;;4.47;4.03;;;9.70;99.90;;;;;;6231410;23;20227;-96
2021/09/21 12:24:11;;;;;;;4.03;3.60;;;9.70;99.90;;;;;;6233804;23;20263;-96
2021/09/21 12:26:43;;;;;;;7.17;4.30;;;9.60;99.90;;;;;;6186869;23;20235;-96
2021/09/21 12:29:23;;;;;;;6.10;3.70;;;9.70;99.90;;;;;;6232778;23;20207;-96
2021/09/21 12:31:57;;;;;;;3.93;3.33;;;9.70;99.90;;;;;;6229582;23;20246;-96
2021/09/21 12:34:36;;;;;;;4.27;3.70;;;9.60;99.90;;;;;;6228486;23;20176;-96
2021/09/21 12:37:08;;;;;;;4.73;3.83;;;9.60;99.90;;;;;;6229898;23;20172;-96
2021/09/21 12:39:40;;;;;;;4.23;3.53;;;9.50;99.90;;;;;;6224039;23;20180;-95
2021/09/21 12:42:12;;;;;;;5.80;3.77;;;9.60;99.90;;;;;;6194730;23;20199;-95
2021/09/21 12:44:48;;;;;;;4.03;3.67;;;9.60;99.90;;;;;;6220987;23;20181;-96
2021/09/21 12:47:20;;;;;;;4.20;3.60;;;9.50;99.90;;;;;;6221155;23;20213;-96
2021/09/21 12:49:52;;;;;;;4.63;3.70;;;9.50;99.90;;;;;;6195181;23;20523;-96
2021/09/21 12:52:30;;;;;;;3.90;3.60;;;9.50;99.90;;;;;;6191304;23;20207;-96
2021/09/21 12:55:05;;;;;;;6.97;3.40;;;9.50;99.90;;;;;;6195270;23;20234;-96
2021/09/21 12:57:37;;;;;;;4.07;3.57;;;9.50;99.90;;;;;;6220728;23;20181;-96
2021/09/21 13:00:18;;;;;;;3.33;3.03;;;9.50;99.90;;;;;;6220917;23;20181;-96
2021/09/21 13:02:50;;;;;;;4.23;3.73;;;9.50;99.90;;;;;;6219187;23;20187;-96
2021/09/21 13:05:25;;;;;;;3.43;3.13;;;9.50;99.90;;;;;;6219634;23;20176;-96
2021/09/21 13:07:57;;;;;;;3.90;3.47;;;9.50;99.90;;;;;;6222535;23;20180;-96
2021/09/21 13:10:30;;;;;;;7.60;3.70;;;9.50;99.90;;;;;;6223304;23;20180;-96
2021/09/21 13:13:02;;;;;;;3.73;3.13;;;9.50;99.90;;;;;;6224656;23;20179;-96
2021/09/21 13:15:38;;;;;;;4.10;3.73;;;9.50;99.90;;;;;;6224199;23;20563;-96
2021/09/21 13:18:14;;;;;;;3.23;2.90;;;9.50;99.90;;;;;;6223406;23;20164;-96
2021/09/21 13:20:46;;;;;;;4.80;3.43;;;9.40;99.90;;;;;;6223279;23;20168;-95
2021/09/21 13:23:18;;;;;;;3.33;3.03;;;9.40;99.90;;;;;;6223312;23;20214;-96
2021/09/21 13:25:51;;;;;;;3.37;3.07;;;9.40;99.90;;;;;;6240897;23;20173;-96
2021/09/21 13:28:23;;;;;;;3.30;3.00;;;9.40;99.90;;;;;;6224577;23;20635;-96
2021/09/21 13:30:56;;;;;;;3.73;3.10;;;9.40;99.90;;;;;;6239696;23;20176;-96
2021/09/21 13:33:28;;;;;;;5.13;3.00;;;9.30;99.90;;;;;;6216411;23;20171;-96
2021/09/21 13:36:00;;;;;;;4.57;3.40;;;9.20;99.90;;;;;;6241717;23;20196;-96
2021/09/21 13:38:31;;;;;;;3.87;2.87;;;9.20;99.90;;;;;;6210198;23;20195;-93
2021/09/21 13:41:04;;;;;;;3.20;2.90;;;9.20;99.90;;;;;;6206171;23;20159;-96
2021/09/21 13:43:39;;;;;;;3.00;2.70;;;9.10;99.90;;;;;;6233541;23;20169;-96
2021/09/21 13:46:13;;;;;;;4.23;2.97;;;9.20;99.90;;;;;;6205802;23;20176;-96
2021/09/21 13:48:47;;;;;;;3.20;2.87;;;9.20;99.90;;;;;;6232494;23;20176;-96
2021/09/21 13:51:21;;;;;;;5.07;2.90;;;9.20;99.90;;;;;;6228934;23;20179;-96
2021/09/21 13:59:24;;;;;;;6.47;2.97;;;9.20;99.90;;;;;;6212117;23;20161;-96
2021/09/21 14:02:03;;;;;;;5.00;2.93;;;9.20;99.90;;;;;;6211364;23;20181;-96
2021/09/21 14:04:38;;;;;;;5.20;2.37;;;9.20;99.90;;;;;;6206102;23;20181;-96
2021/09/21 14:07:09;;;;;;;4.93;2.50;;;9.20;99.90;;;;;;6198227;23;20255;-96
2021/09/21 14:09:41;;;;;;;4.17;2.80;;;9.30;99.90;;;;;;6195067;23;20251;-96
2021/09/21 14:12:12;;;;;;;4.17;3.10;;;9.20;99.90;;;;;;6191082;23;20177;-96
2021/09/21 14:17:21;;;;;;;2.83;2.40;;;9.30;99.90;;;;;;6197981;22;20502;-96
2021/09/21 14:19:55;;;;;;;6.07;2.70;;;9.30;99.90;;;;;;6235514;23;20167;-96
2021/09/21 14:27:44;;;;;;;3.63;2.30;;;9.40;99.90;;;;;;6237840;23;20672;-96
2021/09/21 14:30:20;;;;;;;4.60;2.97;;;9.30;99.90;;;;;;6209110;23;20183;-96
2021/09/21 14:32:56;;;;;;;7.17;2.97;;;9.40;99.90;;;;;;6236128;23;20187;-96
2021/09/21 14:35:28;;;;;;;2.90;2.57;;;9.40;99.90;;;;;;6235758;23;20176;-96